Time;durP1;ratioP1;P1;durP2;ratioP2;P2;SDS_P1;SDS_P2;PMS_P1;PMS_P2;Temp;Humidity;BMP_temperature;BMP_pressure;BME280_temperature;BME280_humidity;BME280_pressure;Samples;Min_cycle;Max_cycle;Signal;HPM_P1;HPM_P2
2022/12/12 00:01:14;;;;;;;;;25.25;20.75;;;;;3.24;100.00;100693.56;5014364;28;45451;-75
2022/12/12 00:03:39;;;;;;;;;29.00;20.75;;;;;3.21;100.00;100703.88;5034265;28;45419;-76
2022/12/12 00:06:05;;;;;;;;;39.75;25.00;;;;;3.18;100.00;100709.84;5051358;28;45230;-75
2022/12/12 00:08:31;;;;;;;;;39.50;21.50;;;;;3.17;100.00;100696.75;5035379;28;46622;-76
2022/12/12 00:10:57;;;;;;;;;27.00;19.25;;;;;3.15;100.00;100707.16;5035222;28;45475;-75
2022/12/12 00:13:22;;;;;;;;;31.50;21.00;;;;;3.13;100.00;100700.97;5038681;28;45213;-76
2022/12/12 00:15:47;;;;;;;;;27.25;23.00;;;;;3.13;100.00;100703.56;5003704;28;46011;-75
2022/12/12 00:18:13;;;;;;;;;31.50;24.75;;;;;3.13;100.00;100698.34;5016585;28;45681;-76
2022/12/12 00:20:38;;;;;;;;;25.25;21.25;;;;;3.13;100.00;100704.47;4998943;28;45938;-75
2022/12/12 00:23:04;;;;;;;;;28.75;23.00;;;;;3.18;100.00;100703.75;5035215;28;45594;-75
2022/12/12 00:25:29;;;;;;;;;33.50;25.75;;;;;3.24;100.00;100715.31;5016738;28;45606;-76
2022/12/12 00:27:54;;;;;;;;;36.00;29.75;;;;;3.28;100.00;100714.59;5000022;28;47437;-76
2022/12/12 00:30:20;;;;;;;;;28.25;21.50;;;;;3.31;100.00;100709.53;5050699;28;45406;-76
2022/12/12 00:32:45;;;;;;;;;24.00;21.00;;;;;3.33;100.00;100720.88;5016856;28;45316;-76
2022/12/12 00:35:11;;;;;;;;;28.50;17.25;;;;;3.36;100.00;100721.03;5034683;28;45395;-75
2022/12/12 00:37:36;;;;;;;;;28.25;20.25;;;;;3.36;100.00;100717.53;5012676;28;49726;-75
2022/12/12 00:40:03;;;;;;;;;31.75;22.75;;;;;3.36;100.00;100712.31;5014142;28;45463;-76
2022/12/12 00:42:28;;;;;;;;;31.00;21.00;;;;;3.37;100.00;100720.19;5029521;28;45366;-77
2022/12/12 00:44:53;;;;;;;;;30.25;20.25;;;;;3.37;100.00;100717.56;5046884;28;45616;-76
2022/12/12 00:47:19;;;;;;;;;25.50;18.25;;;;;3.41;100.00;100726.41;5015222;28;46430;-75
2022/12/12 00:49:44;;;;;;;;;24.00;15.75;;;;;3.44;100.00;100733.47;5018509;28;45378;-76
2022/12/12 00:52:09;;;;;;;;;26.00;21.00;;;;;3.45;100.00;100725.69;5014672;28;45625;-75
2022/12/12 00:54:35;;;;;;;;;21.00;20.25;;;;;3.45;100.00;100730.00;5032495;28;45307;-76
2022/12/12 00:57:00;;;;;;;;;24.75;21.25;;;;;3.48;100.00;100727.53;5033159;28;47362;-75
2022/12/12 00:59:26;;;;;;;;;26.00;23.75;;;;;3.47;100.00;100731.88;5040523;28;46288;-76
2022/12/12 01:01:51;;;;;;;;;23.50;18.25;;;;;3.47;100.00;100725.75;5020889;28;45356;-75
2022/12/12 01:04:17;;;;;;;;;17.50;14.50;;;;;3.46;100.00;100726.56;5001074;28;45556;-76
2022/12/12 01:06:42;;;;;;;;;23.50;21.00;;;;;3.43;100.00;100722.13;5031980;28;46543;-76
2022/12/12 01:09:08;;;;;;;;;26.50;19.25;;;;;3.41;100.00;100718.59;5017340;28;45431;-75
2022/12/12 01:11:33;;;;;;;;;19.00;17.25;;;;;3.47;100.00;100725.75;5047251;28;45560;-74
2022/12/12 01:13:58;;;;;;;;;21.25;17.75;;;;;3.48;100.00;100723.19;5049917;28;45303;-76
2022/12/12 01:16:24;;;;;;;;;25.00;20.25;;;;;3.52;100.00;100726.81;5017955;28;45834;-75
2022/12/12 01:18:50;;;;;;;;;17.25;14.25;;;;;3.55;100.00;100732.13;5017187;28;45534;-76
2022/12/12 01:21:18;;;;;;;;;23.00;18.00;;;;;3.56;100.00;100726.09;5016638;28;45455;-76
2022/12/12 01:23:43;;;;;;;;;21.75;17.75;;;;;3.57;100.00;100715.72;5050538;28;45393;-76
2022/12/12 01:26:18;;;;;;;;;19.25;15.50;;;;;3.57;100.00;100725.25;5049283;28;45453;-76
2022/12/12 01:28:44;;;;;;;;;17.25;13.50;;;;;3.55;100.00;100712.16;5033185;28;45532;-75
2022/12/12 01:31:10;;;;;;;;;30.50;21.00;;;;;3.53;100.00;100721.66;5017798;28;45534;-75
2022/12/12 01:33:36;;;;;;;;;23.00;15.00;;;;;3.54;100.00;100728.66;5050183;28;45436;-76
2022/12/12 01:36:01;;;;;;;;;14.00;8.50;;;;;3.58;100.00;100733.16;5014107;28;45319;-75
2022/12/12 01:38:26;;;;;;;;;26.25;16.25;;;;;3.56;100.00;100723.47;5016541;28;45417;-75
2022/12/12 01:40:52;;;;;;;;;17.75;13.25;;;;;3.60;100.00;100726.25;5016215;28;45632;-75
2022/12/12 01:43:20;;;;;;;;;24.50;19.50;;;;;3.64;100.00;100736.00;5015940;28;45605;-76
2022/12/12 01:45:58;;;;;;;;;20.75;15.00;;;;;3.68;100.00;100732.66;5015952;28;46761;-75
2022/12/12 01:48:42;;;;;;;;;22.75;14.50;;;;;3.67;100.00;100736.13;5016347;28;45497;-78
2022/12/12 01:51:14;;;;;;;;;19.50;13.50;;;;;3.68;100.00;100724.84;5016732;28;45588;-76
2022/12/12 01:53:40;;;;;;;;;24.25;18.25;;;;;3.72;100.00;100741.47;5049728;28;45371;-75
2022/12/12 01:56:11;;;;;;;;;19.50;15.75;;;;;3.74;100.00;100734.63;5032513;28;46170;-76
2022/12/12 01:58:38;;;;;;;;;16.25;11.50;;;;;3.75;100.00;100722.44;5015627;28;45455;-76
2022/12/12 02:01:04;;;;;;;;;28.00;14.00;;;;;3.77;100.00;100732.09;5029579;28;45289;-76
2022/12/12 02:03:29;;;;;;;;;31.50;21.50;;;;;3.76;100.00;100722.50;5016782;28;45365;-76
2022/12/12 02:05:58;;;;;;;;;21.75;13.00;;;;;3.79;100.00;100735.69;5015255;28;52175;-75
2022/12/12 02:08:24;;;;;;;;;23.50;17.75;;;;;3.78;100.00;100731.28;5013095;28;45356;-77
2022/12/12 02:10:50;;;;;;;;;25.00;19.00;;;;;3.78;100.00;100728.69;5030311;28;45371;-76
2022/12/12 02:13:19;;;;;;;;;17.25;14.75;;;;;3.79;100.00;100733.06;5017482;28;45614;-76
2022/12/12 02:16:13;;;;;;;;;20.75;15.25;;;;;3.83;100.00;100734.03;5015140;28;45841;-75
2022/12/12 02:18:38;;;;;;;;;29.75;14.75;;;;;3.83;100.00;100737.53;5016712;28;45525;-75
2022/12/12 02:21:27;;;;;;;;;23.75;16.00;;;;;3.83;100.00;100729.69;5015552;28;45555;-75
2022/12/12 02:24:04;;;;;;;;;25.50;15.00;;;;;3.82;100.00;100733.16;5016480;28;45366;-75
2022/12/12 02:26:44;;;;;;;;;23.50;15.75;;;;;3.83;100.00;100739.25;5016898;28;46790;-76
2022/12/12 02:29:40;;;;;;;;;25.25;16.50;;;;;3.80;100.00;100728.72;5016008;28;45514;-76
2022/12/12 02:32:19;;;;;;;;;16.50;13.00;;;;;3.80;100.00;100728.72;5032402;28;45524;-75
2022/12/12 02:35:19;;;;;;;;;18.25;15.00;;;;;3.82;100.00;100738.38;5016667;28;45448;-76
2022/12/12 02:38:06;;;;;;;;;20.25;14.25;;;;;3.81;100.00;100733.09;4998444;28;47886;-76
2022/12/12 02:40:45;;;;;;;;;18.00;14.25;;;;;3.84;100.00;100735.84;5015568;28;45538;-75
2022/12/12 02:43:35;;;;;;;;;17.00;15.25;;;;;3.84;100.00;100744.56;5015280;28;45550;-76
2022/12/12 02:46:06;;;;;;;;;19.25;14.75;;;;;3.82;100.00;100741.00;5015350;28;45506;-77
2022/12/12 02:48:41;;;;;;;;;13.50;11.00;;;;;3.81;100.00;100733.09;5027723;28;46283;-76
2022/12/12 02:51:07;;;;;;;;;26.25;19.50;;;;;3.81;100.00;100734.00;5016449;28;45415;-76
2022/12/12 02:53:33;;;;;;;;;14.50;10.50;;;;;3.82;100.00;100732.28;5015541;28;45600;-76
2022/12/12 02:56:08;;;;;;;;;16.50;14.75;;;;;3.85;100.00;100737.63;5015712;28;46018;-76
2022/12/12 02:58:35;;;;;;;;;19.25;11.50;;;;;3.83;100.00;100731.44;5014690;28;45821;-75
2022/12/12 03:01:10;;;;;;;;;26.75;16.00;;;;;3.87;100.00;100730.72;4997687;28;45436;-78
2022/12/12 03:10:00;;;;;;;;;18.50;15.00;;;;;3.87;100.00;100725.50;5013533;28;45723;-76
2022/12/12 03:12:39;;;;;;;;;22.25;11.50;;;;;3.83;100.00;100724.47;5016688;28;45816;-77
2022/12/12 03:15:11;;;;;;;;;21.00;12.50;;;;;3.87;100.00;100723.75;5016057;28;45300;-77
2022/12/12 03:17:43;;;;;;;;;17.00;11.25;;;;;3.86;100.00;100724.59;5015191;28;46947;-76
2022/12/12 03:20:17;;;;;;;;;9.00;9.00;;;;;3.85;100.00;100730.66;5015507;28;45563;-77
2022/12/12 03:22:55;;;;;;;;;18.50;11.00;;;;;3.85;100.00;100720.22;5047770;28;45354;-76
2022/12/12 03:25:40;;;;;;;;;15.50;6.50;;;;;3.87;100.00;100718.53;5029969;28;45535;-76
2022/12/12 03:28:39;;;;;;;;;19.50;13.50;;;;;3.88;100.00;100722.03;5015169;28;46726;-75
2022/12/12 03:31:07;;;;;;;;;20.50;14.75;;;;;3.86;100.00;100719.38;5009217;28;46025;-76
2022/12/12 03:33:42;;;;;;;;;21.75;16.25;;;;;3.87;100.00;100717.66;5011765;28;45526;-75
2022/12/12 03:36:20;;;;;;;;;8.25;8.25;;;;;3.90;100.00;100725.63;5012909;28;45572;-76
2022/12/12 03:38:56;;;;;;;;;19.25;18.00;;;;;3.90;100.00;100720.38;5014964;28;45337;-76
2022/12/12 03:41:25;;;;;;;;;24.25;17.25;;;;;3.87;100.00;100720.25;5014072;28;45918;-75
2022/12/12 03:43:58;;;;;;;;;27.25;18.25;;;;;3.87;100.00;100733.31;5014640;28;45481;-76
2022/12/12 03:46:28;;;;;;;;;19.50;13.75;;;;;3.89;100.00;100729.06;5029387;28;46370;-75
2022/12/12 03:49:08;;;;;;;;;20.25;18.25;;;;;3.92;100.00;100739.59;5006220;28;45566;-76
2022/12/12 03:51:39;;;;;;;;;18.25;15.00;;;;;3.92;100.00;100724.81;5014424;28;46503;-76
2022/12/12 03:54:08;;;;;;;;;27.25;15.75;;;;;3.94;100.00;100728.41;5027918;28;45496;-75
2022/12/12 03:56:38;;;;;;;;;22.75;15.75;;;;;3.95;100.00;100724.06;5047181;28;45583;-75
2022/12/12 03:59:07;;;;;;;;;23.25;17.50;;;;;3.94;100.00;100735.31;5013778;28;45454;-77
2022/12/12 04:01:48;;;;;;;;;23.25;13.75;;;;;3.94;100.00;100732.69;5013271;28;45920;-75
2022/12/12 04:04:19;;;;;;;;;19.75;12.25;;;;;3.97;100.00;100739.78;5021832;28;45427;-77
2022/12/12 04:06:50;;;;;;;;;18.50;12.50;;;;;3.99;100.00;100745.94;5013957;28;45486;-76
2022/12/12 04:15:18;;;;;;;;;17.50;13.50;;;;;4.03;100.00;100753.94;5007656;28;45485;-77
2022/12/12 04:17:59;;;;;;;;;20.00;18.00;;;;;4.04;100.00;100755.72;5014847;28;45364;-77
2022/12/12 04:23:17;;;;;;;;;19.50;15.75;;;;;4.05;100.00;100762.75;5018015;28;45698;-77
2022/12/12 04:28:54;;;;;;;;;23.25;15.50;;;;;4.03;100.00;100764.38;5017852;28;45307;-75
2022/12/12 04:31:22;;;;;;;;;19.25;16.25;;;;;4.05;100.00;100764.44;5017841;28;45520;-75
2022/12/12 04:33:50;;;;;;;;;26.50;12.75;;;;;4.04;100.00;100763.56;5016816;28;45743;-75
2022/12/12 04:36:18;;;;;;;;;17.50;13.50;;;;;4.04;100.00;100767.88;5017062;28;45193;-75
2022/12/12 04:38:45;;;;;;;;;17.25;17.25;;;;;4.00;100.00;100759.06;5016740;28;45514;-76
2022/12/12 04:41:12;;;;;;;;;18.50;14.75;;;;;4.04;100.00;100750.50;5017618;28;45414;-78
2022/12/12 04:43:39;;;;;;;;;21.75;13.50;;;;;4.04;100.00;100747.00;5050386;28;47455;-76
2022/12/12 04:46:12;;;;;;;;;19.75;14.75;;;;;4.05;100.00;100746.16;5032606;28;45517;-75
2022/12/12 04:48:46;;;;;;;;;23.25;15.75;;;;;4.06;100.00;100754.06;5050849;28;45440;-76
2022/12/12 04:51:14;;;;;;;;;20.75;14.50;;;;;4.06;100.00;100754.06;5017901;28;45450;-76
2022/12/12 04:53:44;;;;;;;;;19.25;14.25;;;;;4.07;100.00;100753.22;5031361;28;47869;-77
2022/12/12 04:56:10;;;;;;;;;24.25;12.50;;;;;4.05;100.00;100749.69;5031849;28;45347;-74
2022/12/12 04:58:37;;;;;;;;;23.75;15.25;;;;;4.10;100.00;100757.66;5049501;28;45458;-77
2022/12/12 05:01:18;;;;;;;;;18.75;11.00;;;;;4.06;100.00;100748.84;5016908;28;45526;-76
2022/12/12 05:04:10;;;;;;;;;16.50;14.75;;;;;4.09;100.00;100764.59;5016038;28;45835;-75
2022/12/12 05:06:45;;;;;;;;;17.00;11.00;;;;;4.07;100.00;100757.56;5016307;28;45515;-75
2022/12/12 05:09:12;;;;;;;;;24.50;16.00;;;;;4.08;100.00;100757.59;5016156;28;45439;-76
2022/12/12 05:11:38;;;;;;;;;16.75;11.50;;;;;4.06;100.00;100743.63;5017136;28;45317;-77
2022/12/12 05:14:07;;;;;;;;;24.75;17.25;;;;;4.05;100.00;100744.47;5032360;28;48328;-76
2022/12/12 05:16:40;;;;;;;;;8.00;8.00;;;;;4.07;100.00;100748.00;5017333;28;45527;-76
2022/12/12 05:19:06;;;;;;;;;17.25;11.25;;;;;4.07;100.00;100753.22;5049528;28;45535;-77
2022/12/12 05:21:31;;;;;;;;;19.50;13.75;;;;;4.09;100.00;100758.50;5017915;28;45507;-77
2022/12/12 05:23:57;;;;;;;;;23.50;14.00;;;;;4.10;100.00;100752.44;5016791;28;46105;-76
2022/12/12 05:26:27;;;;;;;;;16.50;15.00;;;;;4.06;100.00;100753.19;5049439;28;46003;-76
2022/12/12 05:28:53;;;;;;;;;25.75;14.00;;;;;4.05;100.00;100747.06;5029688;28;45329;-76
2022/12/12 05:31:19;;;;;;;;;18.75;12.00;;;;;4.09;100.00;100755.88;5014962;28;45474;-75
2022/12/12 05:33:44;;;;;;;;;15.25;13.00;;;;;4.09;100.00;100753.28;5014572;28;46621;-75
2022/12/12 05:36:10;;;;;;;;;23.00;14.75;;;;;4.07;100.00;100740.16;5016181;28;45701;-76
2022/12/12 05:38:35;;;;;;;;;15.00;14.50;;;;;4.11;100.00;100749.00;5049578;28;46822;-76
2022/12/12 05:41:01;;;;;;;;;22.50;15.25;;;;;4.11;100.00;100749.00;5049719;28;45502;-75
2022/12/12 05:43:27;;;;;;;;;25.75;17.25;;;;;4.08;100.00;100741.03;5016152;28;46335;-75
2022/12/12 05:45:52;;;;;;;;;16.00;13.50;;;;;4.05;100.00;100736.63;5016938;28;45472;-77
2022/12/12 05:48:17;;;;;;;;;17.50;15.00;;;;;4.06;100.00;100746.22;5016068;28;45406;-76
2022/12/12 05:50:43;;;;;;;;;15.25;11.50;;;;;4.06;100.00;100746.22;5030855;28;45335;-76
2022/12/12 05:53:09;;;;;;;;;14.25;11.75;;;;;4.07;100.00;100742.78;5015760;28;47326;-76
2022/12/12 05:55:35;;;;;;;;;9.75;7.50;;;;;4.04;100.00;100736.53;5017728;28;45733;-77
2022/12/12 05:58:00;;;;;;;;;18.75;18.75;;;;;4.05;100.00;100741.84;5015962;28;45441;-76
2022/12/12 06:00:26;;;;;;;;;19.25;18.00;;;;;4.03;100.00;100743.50;5032916;28;45560;-76
2022/12/12 06:02:51;;;;;;;;;13.75;12.75;;;;;4.00;100.00;100735.56;5017586;28;45953;-76
2022/12/12 06:05:16;;;;;;;;;28.50;18.75;;;;;4.05;100.00;100747.06;5020792;28;45593;-77
2022/12/12 06:07:42;;;;;;;;;10.75;9.50;;;;;4.08;100.00;100748.88;5013053;28;45341;-76
2022/12/12 06:10:07;;;;;;;;;16.75;16.25;;;;;4.09;100.00;100750.66;5011388;28;45535;-76
2022/12/12 06:12:33;;;;;;;;;14.25;11.75;;;;;4.09;100.00;100745.44;5011731;28;46464;-77
2022/12/12 06:14:58;;;;;;;;;19.50;14.75;;;;;4.12;100.00;100751.66;5045361;28;48543;-76
2022/12/12 06:17:24;;;;;;;;;26.25;19.00;;;;;4.14;100.00;100755.22;5016564;28;45398;-77
2022/12/12 06:19:49;;;;;;;;;27.50;18.50;;;;;4.11;100.00;100752.50;5016076;28;45749;-77
2022/12/12 06:22:15;;;;;;;;;27.50;13.00;;;;;4.15;100.00;100759.59;5014792;28;45678;-76
2022/12/12 06:24:40;;;;;;;;;24.00;13.25;;;;;4.15;100.00;100753.47;5016773;28;45335;-77
2022/12/12 06:27:06;;;;;;;;;16.25;11.50;;;;;4.13;100.00;100757.78;5013947;28;45814;-78
2022/12/12 06:29:31;;;;;;;;;18.25;14.00;;;;;4.12;100.00;100756.91;5013363;28;45451;-78
2022/12/12 06:31:56;;;;;;;;;21.50;15.75;;;;;4.09;100.00;100764.59;5017361;28;48118;-76
2022/12/12 06:34:22;;;;;;;;;21.25;14.50;;;;;4.07;100.00;100768.00;5023351;28;45485;-76
2022/12/12 06:36:47;;;;;;;;;22.75;16.75;;;;;4.02;100.00;100759.13;4996482;28;45752;-77
2022/12/12 06:39:13;;;;;;;;;17.00;12.50;;;;;4.01;100.00;100749.50;5050087;28;45525;-78
2022/12/12 06:41:38;;;;;;;;;18.25;14.75;;;;;4.01;100.00;100759.97;5035175;28;46455;-76
2022/12/12 06:44:04;;;;;;;;;23.00;12.00;;;;;3.95;100.00;100760.63;5012758;28;45562;-76
2022/12/12 06:46:30;;;;;;;;;23.25;13.50;;;;;3.95;100.00;100758.03;5025001;28;45474;-75
2022/12/12 06:48:56;;;;;;;;;21.50;14.50;;;;;3.97;100.00;100768.50;5016825;28;45522;-77
2022/12/12 06:51:23;;;;;;;;;23.00;18.25;;;;;3.96;100.00;100765.00;5035037;28;46772;-77
2022/12/12 06:53:49;;;;;;;;;20.00;10.75;;;;;3.96;100.00;100762.41;5034940;28;45467;-77
2022/12/12 06:56:20;;;;;;;;;21.00;15.00;;;;;3.97;100.00;100768.50;5034405;28;45618;-77
2022/12/12 06:58:46;;;;;;;;;22.75;16.50;;;;;3.96;100.00;100777.19;5033277;28;45526;-78
2022/12/12 07:01:13;;;;;;;;;22.00;18.25;;;;;3.95;100.00;100771.06;4999809;28;48478;-79
2022/12/12 07:03:39;;;;;;;;;15.25;15.00;;;;;3.96;100.00;100764.13;5014018;28;45554;-78
2022/12/12 07:06:05;;;;;;;;;15.00;13.50;;;;;3.95;100.00;100755.41;5001782;28;45304;-82
2022/12/12 07:08:30;;;;;;;;;16.00;11.50;;;;;3.96;100.00;100751.06;5049476;28;45583;-77
2022/12/12 07:11:01;;;;;;;;;19.50;16.25;;;;;3.95;100.00;100760.63;5015826;28;46523;-75
2022/12/12 07:13:26;;;;;;;;;14.25;14.25;;;;;3.90;100.00;100751.75;5049532;28;46767;-76
2022/12/12 07:15:54;;;;;;;;;20.25;16.75;;;;;3.90;100.00;100755.22;5035580;28;45499;-78
2022/12/12 07:18:19;;;;;;;;;18.75;16.25;;;;;3.88;100.00;100761.22;5010044;28;45559;-76
2022/12/12 07:20:46;;;;;;;;;17.50;15.75;;;;;3.85;100.00;100755.91;5016581;28;45601;-76
2022/12/12 07:23:11;;;;;;;;;19.00;15.50;;;;;3.83;100.00;100761.03;5045024;28;45442;-76
2022/12/12 07:25:42;;;;;;;;;20.00;14.75;;;;;3.78;100.00;100769.53;5030404;28;45526;-75
2022/12/12 07:28:09;;;;;;;;;27.00;13.25;;;;;3.73;100.00;100776.31;5011688;28;45728;-75
2022/12/12 07:30:43;;;;;;;;;28.50;20.75;;;;;3.71;100.00;100785.81;5011484;28;46210;-75
2022/12/12 07:33:09;;;;;;;;;16.50;14.25;;;;;3.71;100.00;100784.09;5014703;28;45448;-75
2022/12/12 07:35:34;;;;;;;;;25.00;18.00;;;;;3.71;100.00;100788.44;5042372;28;45769;-75
2022/12/12 07:38:00;;;;;;;;;26.75;17.75;;;;;3.68;100.00;100782.28;5012129;28;45558;-75
2022/12/12 07:40:26;;;;;;;;;26.50;20.00;;;;;3.68;100.00;100792.72;5012926;28;48319;-76
2022/12/12 07:42:51;;;;;;;;;13.25;11.75;;;;;3.70;100.00;100791.88;5031413;28;46894;-76
2022/12/12 07:45:16;;;;;;;;;23.75;20.00;;;;;3.68;100.00;100781.41;5031999;28;47772;-75
2022/12/12 07:47:42;;;;;;;;;16.25;12.75;;;;;3.67;100.00;100784.81;5049309;28;45579;-73
2022/12/12 07:50:08;;;;;;;;;22.00;17.00;;;;;3.70;100.00;100778.81;5012346;28;46322;-75
2022/12/12 07:52:33;;;;;;;;;18.75;17.25;;;;;3.70;100.00;100782.31;5015812;28;45660;-73
2022/12/12 07:54:59;;;;;;;;;18.50;15.00;;;;;3.68;100.00;100778.78;5030529;28;45851;-74
2022/12/12 07:57:24;;;;;;;;;18.00;12.00;;;;;3.70;100.00;100792.78;5035755;28;45563;-74
2022/12/12 07:59:49;;;;;;;;;24.50;18.50;;;;;3.68;100.00;100791.84;5037304;28;45447;-77
2022/12/12 08:02:15;;;;;;;;;23.75;14.75;;;;;3.70;100.00;100791.88;5037971;28;45431;-75
2022/12/12 08:04:40;;;;;;;;;21.25;15.00;;;;;3.74;100.00;100797.28;5019252;28;45522;-75
2022/12/12 08:07:06;;;;;;;;;21.50;18.00;;;;;3.77;100.00;100788.66;5034657;28;46616;-74
2022/12/12 08:09:31;;;;;;;;;25.50;18.00;;;;;3.78;100.00;100791.34;5037514;28;50875;-74
2022/12/12 08:11:58;;;;;;;;;26.25;16.75;;;;;3.81;100.00;100801.00;5019081;28;45511;-74
2022/12/12 08:14:24;;;;;;;;;25.75;18.50;;;;;3.86;100.00;100815.13;5018886;28;45602;-74
2022/12/12 08:16:49;;;;;;;;;27.50;19.75;;;;;3.90;100.00;100814.41;5037310;28;45555;-74
2022/12/12 08:19:15;;;;;;;;;28.00;19.75;;;;;3.95;100.00;100812.88;5037300;28;45663;-74
2022/12/12 08:21:41;;;;;;;;;26.00;19.50;;;;;3.95;100.00;100812.88;5036762;28;49216;-74
2022/12/12 08:24:07;;;;;;;;;26.75;18.25;;;;;3.98;100.00;100815.56;5036557;28;45570;-74
2022/12/12 08:26:33;;;;;;;;;24.75;15.00;;;;;4.00;100.00;100806.09;5037009;28;45344;-74
2022/12/12 08:28:58;;;;;;;;;23.00;18.75;;;;;4.00;100.00;100803.47;5038177;28;45499;-74
2022/12/12 08:31:25;;;;;;;;;28.50;16.50;;;;;4.03;100.00;100803.56;5037736;28;45486;-74
2022/12/12 08:33:50;;;;;;;;;22.75;17.25;;;;;4.04;100.00;100802.75;5037709;28;45624;-74
2022/12/12 08:36:24;;;;;;;;;24.50;19.00;;;;;4.05;100.00;100801.00;5037377;28;45768;-74
2022/12/12 08:38:50;;;;;;;;;28.25;22.00;;;;;4.10;100.00;100810.84;5036803;28;46450;-75
2022/12/12 08:41:16;;;;;;;;;27.50;18.75;;;;;4.12;100.00;100822.22;5037452;28;45613;-75
2022/12/12 08:43:42;;;;;;;;;27.25;19.50;;;;;4.15;100.00;100831.88;5037788;28;45364;-75
2022/12/12 08:46:09;;;;;;;;;25.00;19.25;;;;;4.16;100.00;100826.72;5037936;28;45290;-75
2022/12/12 08:48:35;;;;;;;;;26.50;18.50;;;;;4.20;100.00;100827.72;5015946;28;46675;-75
2022/12/12 08:51:00;;;;;;;;;26.50;22.50;;;;;4.19;100.00;100832.03;5034003;28;45459;-75
2022/12/12 08:53:26;;;;;;;;;28.00;22.75;;;;;4.21;100.00;100842.56;5018726;28;45507;-76
2022/12/12 08:55:53;;;;;;;;;25.25;18.50;;;;;4.27;100.00;100848.03;5035849;28;45531;-75
2022/12/12 08:58:18;;;;;;;;;31.25;24.50;;;;;4.30;100.00;100847.22;5019027;28;47888;-75
2022/12/12 09:00:43;;;;;;;;;40.25;26.25;;;;;4.31;100.00;100834.22;5018851;28;45484;-75
2022/12/12 09:03:09;;;;;;;;;22.75;20.00;;;;;4.38;100.00;100843.19;5034923;28;45485;-75
2022/12/12 09:05:34;;;;;;;;;38.75;21.50;;;;;4.38;100.00;100843.19;5037006;28;45400;-74
2022/12/12 09:08:00;;;;;;;;;36.00;24.75;;;;;4.37;100.00;100849.25;5016970;28;46381;-75
2022/12/12 09:10:26;;;;;;;;;26.25;21.25;;;;;4.39;100.00;100852.81;5018995;28;49117;-76
2022/12/12 09:12:52;;;;;;;;;39.50;22.75;;;;;4.46;100.00;100844.34;5020117;28;45345;-75
2022/12/12 09:15:17;;;;;;;;;26.50;21.50;;;;;4.45;100.00;100848.69;5034728;28;45545;-75
2022/12/12 09:17:43;;;;;;;;;31.25;24.25;;;;;4.46;100.00;100837.38;5036265;28;45839;-74
2022/12/12 09:20:09;;;;;;;;;30.50;21.00;;;;;4.52;100.00;100839.31;5037551;28;45502;-74
2022/12/12 09:22:34;;;;;;;;;28.25;22.50;;;;;4.55;100.00;100842.06;5037532;28;45174;-75
2022/12/12 09:25:00;;;;;;;;;27.50;21.50;;;;;4.58;100.00;100838.63;5036999;28;45496;-75
2022/12/12 09:27:25;;;;;;;;;31.00;25.75;;;;;4.62;100.00;100838.81;5036140;28;45731;-76
2022/12/12 09:29:51;;;;;;;;;31.75;24.00;;;;;4.68;100.00;100833.78;5052223;28;45385;-75
2022/12/12 09:32:17;;;;;;;;;22.50;19.75;;;;;4.69;100.00;100824.25;5018559;28;45445;-75
2022/12/12 09:34:42;;;;;;;;;29.00;22.00;;;;;4.70;100.00;100826.00;5035846;28;45444;-74
2022/12/12 09:37:08;;;;;;;;;29.75;21.00;;;;;4.68;100.00;100823.31;5179768;22;47527;-74
2022/12/12 09:39:33;;;;;;;;;29.00;26.00;;;;;4.65;100.00;100820.63;5094058;27;45468;-76
2022/12/12 09:42:13;;;;;;;;;23.75;22.50;;;;;4.64;100.00;100826.69;5089530;27;45586;-76
2022/12/12 09:44:39;;;;;;;;;28.00;20.75;;;;;4.64;100.00;100828.44;5073350;27;45535;-75
2022/12/12 09:47:09;;;;;;;;;24.00;19.25;;;;;4.64;100.00;100829.31;5092863;27;46266;-76
2022/12/12 09:49:46;;;;;;;;;31.25;23.50;;;;;4.70;100.00;100829.50;5070710;27;45492;-75
2022/12/12 09:52:18;;;;;;;;;32.50;20.25;;;;;4.72;100.00;100830.44;5091595;27;46000;-76
2022/12/12 09:54:44;;;;;;;;;35.00;24.50;;;;;4.72;100.00;100827.84;5077927;27;45475;-76
2022/12/12 09:57:12;;;;;;;;;25.50;20.75;;;;;4.75;100.00;100832.28;5091966;27;47513;-75
2022/12/12 10:00:07;;;;;;;;;25.50;19.50;;;;;4.72;100.00;100824.31;5096339;27;45561;-74
2022/12/12 10:02:53;;;;;;;;;30.00;23.50;;;;;4.68;100.00;100822.44;5090945;27;45511;-74
2022/12/12 10:05:31;;;;;;;;;31.25;20.00;;;;;4.67;100.00;100823.28;5093256;27;45532;-77
2022/12/12 10:07:58;;;;;;;;;30.50;21.75;;;;;4.70;100.00;100826.91;5091731;27;46637;-76
2022/12/12 10:10:33;;;;;;;;;28.50;21.50;;;;;4.78;100.00;100824.53;5075813;27;45541;-77
2022/12/12 10:13:01;;;;;;;;;33.25;24.25;;;;;4.85;100.00;100821.31;5079132;27;45480;-76
2022/12/12 10:15:34;;;;;;;;;32.00;24.25;;;;;4.88;100.00;100820.50;5078445;27;45509;-77
2022/12/12 10:18:06;;;;;;;;;31.75;19.50;;;;;4.90;100.00;100805.75;5075204;27;48504;-77
2022/12/12 10:20:39;;;;;;;;;32.50;21.75;;;;;4.93;100.00;100791.03;5092484;27;45405;-75
2022/12/12 10:23:10;;;;;;;;;32.00;26.75;;;;;4.95;100.00;100805.09;5079367;27;45356;-75
2022/12/12 10:25:40;;;;;;;;;33.50;23.75;;;;;4.91;100.00;100797.97;5096775;27;45434;-74
2022/12/12 10:28:13;;;;;;;;;30.25;25.00;;;;;4.87;100.00;100803.03;5078228;27;46738;-75
2022/12/12 10:30:54;;;;;;;;;27.25;22.25;;;;;4.83;100.00;100802.03;5077316;27;45547;-76
2022/12/12 10:33:30;;;;;;;;;30.50;20.25;;;;;4.81;100.00;100801.09;5095767;27;45541;-75
2022/12/12 10:36:20;;;;;;;;;35.00;28.50;;;;;4.79;100.00;100797.53;5093514;27;45282;-75
2022/12/12 10:39:01;;;;;;;;;34.00;26.25;;;;;4.78;100.00;100798.38;5085223;27;46976;-75
2022/12/12 10:41:46;;;;;;;;;34.25;25.00;;;;;4.79;100.00;100814.97;5088929;27;45332;-76
2022/12/12 10:44:40;;;;;;;;;29.00;22.00;;;;;4.81;100.00;100819.41;5088439;27;45457;-74
2022/12/12 10:47:08;;;;;;;;;26.75;22.00;;;;;4.86;100.00;100812.63;5091199;27;45459;-75
2022/12/12 10:49:34;;;;;;;;;26.00;21.00;;;;;4.94;100.00;100802.41;5074889;27;46731;-75
2022/12/12 10:52:03;;;;;;;;;26.75;22.75;;;;;4.96;100.00;100809.47;5076777;27;45347;-75
2022/12/12 10:54:31;;;;;;;;;28.75;24.25;;;;;4.90;100.00;100797.88;5093904;27;45600;-74
2022/12/12 10:57:21;;;;;;;;;27.25;22.25;;;;;4.87;100.00;100800.44;5077657;27;45645;-76
2022/12/12 10:59:49;;;;;;;;;31.00;22.50;;;;;4.82;100.00;100789.81;5054342;28;46976;-76
2022/12/12 11:02:22;;;;;;;;;29.00;23.50;;;;;4.83;100.00;100786.34;5070437;27;45434;-75
2022/12/12 11:04:47;;;;;;;;;32.75;23.50;;;;;4.84;100.00;100789.84;5092146;27;45283;-74
2022/12/12 11:07:18;;;;;;;;;32.00;23.00;;;;;4.80;100.00;100788.88;5089795;27;45351;-75
2022/12/12 11:09:45;;;;;;;;;26.75;17.00;;;;;4.71;100.00;100773.75;5092096;27;46612;-76
2022/12/12 11:12:15;;;;;;;;;27.75;18.25;;;;;4.66;100.00;100767.47;5082472;27;45469;-76
2022/12/12 11:14:47;;;;;;;;;26.00;19.25;;;;;4.65;100.00;100768.31;5074501;27;45525;-77
2022/12/12 11:17:28;;;;;;;;;33.00;23.75;;;;;4.61;100.00;100755.09;5086178;27;45512;-74
2022/12/12 11:19:56;;;;;;;;;31.00;20.25;;;;;4.58;100.00;100755.88;5092291;27;46734;-77
2022/12/12 11:22:22;;;;;;;;;28.00;21.00;;;;;4.53;100.00;100738.22;5076270;27;45499;-75
2022/12/12 11:24:48;;;;;;;;;29.75;25.00;;;;;4.52;100.00;100734.72;5093589;27;45570;-74
2022/12/12 11:27:21;;;;;;;;;29.75;27.25;;;;;4.52;100.00;100726.00;5072520;27;45617;-74
2022/12/12 11:29:54;;;;;;;;;23.00;19.25;;;;;4.48;100.00;100719.81;5075953;27;46474;-74
2022/12/12 11:32:28;;;;;;;;;29.50;23.50;;;;;4.46;100.00;100714.50;5092740;27;45772;-76
2022/12/12 11:35:02;;;;;;;;;22.75;18.75;;;;;4.41;100.00;100692.53;5072312;27;45323;-77
2022/12/12 11:37:38;;;;;;;;;21.75;17.75;;;;;4.45;100.00;100697.03;5091387;27;45576;-75